FJDG

Naval Support Facility Diego Garcia

Airport
ICAO code
FJDG
Summary
ICAO Region
APAC
Location

Diego Garcia, Chagos Archipelagos

Serving
Diego Garcia
Elevation
13 ft
Coordinates
7° 18' 48" S , 72° 24' 40" E
KCC
Metar
FJDG 151955Z 16012KT 9999 FEW021 BKN080 BKN250 26/25 A2985 RMK SLP105 T02610247

US military airport on the island of Diego Garcia, British Indian Ocean Territories.

Climatology

Tropical Rainforest climate (Köppen climate classification Af)

Runways

Designator Length Width Surface Rops
13/31 3659 61 CON Yes/Yes

Airport map

Aerial View

SKYbrary Partners:

Safety knowledge contributed by: